createdAt,value
2024-01-18T00:03:56.509Z,3.70
2024-01-18T00:14:00.124Z,2.70
2024-01-18T00:24:03.270Z,3.00
2024-01-18T00:34:06.681Z,2.90
2024-01-18T00:44:12.800Z,3.00
2024-01-18T00:54:15.982Z,2.80
2024-01-18T01:04:19.142Z,2.50
2024-01-18T01:14:22.334Z,2.20
2024-01-18T01:24:25.701Z,7.90
2024-01-18T01:34:28.914Z,2.80
2024-01-18T01:44:32.153Z,1.90
2024-01-18T01:54:36.063Z,1.80
2024-01-18T02:04:39.382Z,2.30
2024-01-18T02:14:43.195Z,2.20
2024-01-18T02:24:55.935Z,2.20
2024-01-18T02:34:59.634Z,3.30
2024-01-18T02:45:05.961Z,3.20
2024-01-18T02:55:09.458Z,2.30
2024-01-18T03:05:13.855Z,2.30
2024-01-18T03:15:17.315Z,2.10
2024-01-18T03:25:20.407Z,2.90
2024-01-18T03:35:25.374Z,1.90
2024-01-18T03:45:28.825Z,2.50
2024-01-18T03:55:31.939Z,2.80
2024-01-18T04:05:35.203Z,3.60
2024-01-18T04:15:38.572Z,4.00
2024-01-18T04:25:42.447Z,3.20
2024-01-18T04:35:45.850Z,4.00
2024-01-18T04:45:48.970Z,2.40
2024-01-18T04:55:52.380Z,3.00
2024-01-18T05:05:58.050Z,2.60
2024-01-18T05:16:03.204Z,3.00
2024-01-18T05:26:06.870Z,2.60
2024-01-18T05:36:09.878Z,4.40
2024-01-18T05:46:13.181Z,5.80
2024-01-18T05:56:16.334Z,5.10
2024-01-18T06:06:19.409Z,6.00
2024-01-18T06:16:22.882Z,4.70
2024-01-18T06:26:26.040Z,3.80
2024-01-18T06:36:29.260Z,3.50
2024-01-18T06:46:32.849Z,3.90
2024-01-18T06:56:36.065Z,5.10
2024-01-18T07:06:40.002Z,4.40
2024-01-18T07:16:43.259Z,4.80
2024-01-18T07:26:46.480Z,5.00
2024-01-18T07:36:49.497Z,5.50
2024-01-18T07:46:52.546Z,4.20
2024-01-18T07:56:56.432Z,6.20
2024-01-18T08:07:00.589Z,6.60
2024-01-18T08:17:04.096Z,10.30
2024-01-18T08:27:07.142Z,10.50
2024-01-18T08:37:10.454Z,6.70
2024-01-18T08:47:14.457Z,8.50
2024-01-18T08:57:19.729Z,8.20
2024-01-18T09:07:23.040Z,11.60
2024-01-18T09:17:26.226Z,7.40
2024-01-18T09:27:29.474Z,11.80
2024-01-18T09:37:33.198Z,10.50
2024-01-18T09:47:36.642Z,13.10
2024-01-18T09:57:44.856Z,9.50
2024-01-18T10:07:48.375Z,11.90
2024-01-18T10:17:54.245Z,25.20
2024-01-18T10:27:59.456Z,16.80
2024-01-18T10:38:02.828Z,18.30
2024-01-18T10:48:06.625Z,15.70
2024-01-18T10:58:10.012Z,20.40
2024-01-18T11:08:14.550Z,20.00
2024-01-18T11:18:17.686Z,19.50
2024-01-18T11:28:24.640Z,19.00
2024-01-18T11:38:35.170Z,14.80
2024-01-18T11:48:38.529Z,24.00
2024-01-18T11:58:41.828Z,19.30
2024-01-18T12:08:46.072Z,20.00
2024-01-18T12:18:51.628Z,33.30
2024-01-18T12:28:58.749Z,44.50
2024-01-18T12:39:04.155Z,33.40
2024-01-18T12:49:08.339Z,27.80
2024-01-18T12:59:14.030Z,32.40
2024-01-18T13:09:20.807Z,29.10
2024-01-18T13:19:25.605Z,26.30
2024-01-18T13:29:29.011Z,25.10
2024-01-18T13:39:32.603Z,27.20
2024-01-18T13:49:36.873Z,47.20
2024-01-18T13:59:40.170Z,31.60
2024-01-18T14:09:44.146Z,30.30
2024-01-18T14:19:47.380Z,30.30
2024-01-18T14:29:50.528Z,34.00
2024-01-18T14:39:53.737Z,64.30
2024-01-18T14:49:58.109Z,53.40
2024-01-18T15:00:01.892Z,258.50
2024-01-18T15:10:06.983Z,47.00
2024-01-18T15:20:11.425Z,75.00
2024-01-18T15:30:15.610Z,64.10
2024-01-18T15:40:18.946Z,56.80
2024-01-18T15:50:22.522Z,93.20
2024-01-18T16:00:26.100Z,52.10
2024-01-18T16:10:29.582Z,74.20
2024-01-18T16:20:32.699Z,94.30
2024-01-18T16:30:36.950Z,105.40
2024-01-18T16:40:41.156Z,115.20
2024-01-18T16:50:44.461Z,99.60
2024-01-18T17:00:47.492Z,127.70
2024-01-18T17:10:51.097Z,87.30
2024-01-18T17:20:54.493Z,72.50
2024-01-18T17:30:57.556Z,58.70
2024-01-18T17:41:03.314Z,65.40
2024-01-18T17:51:06.838Z,58.60
2024-01-18T18:01:10.375Z,50.50
2024-01-18T18:11:16.795Z,41.10
2024-01-18T18:21:24.731Z,33.00
2024-01-18T18:31:27.877Z,19.30
2024-01-18T18:41:31.371Z,17.10
2024-01-18T18:51:34.529Z,17.60
2024-01-18T19:01:37.665Z,45.20
2024-01-18T19:11:43.181Z,17.50
2024-01-18T19:21:46.531Z,10.30
2024-01-18T19:31:50.444Z,10.80
2024-01-18T19:41:53.617Z,12.80
2024-01-18T19:51:59.006Z,11.10
2024-01-18T20:02:05.707Z,7.70
2024-01-18T20:12:09.082Z,9.90
2024-01-18T20:22:12.422Z,15.40
2024-01-18T20:32:15.868Z,12.00
2024-01-18T20:42:19.235Z,14.50
2024-01-18T20:52:22.472Z,14.80
2024-01-18T21:02:25.696Z,19.20
2024-01-18T21:12:28.804Z,20.70
2024-01-18T21:22:31.871Z,20.60
2024-01-18T21:32:35.296Z,22.30
2024-01-18T21:42:38.563Z,25.40
2024-01-18T21:52:42.169Z,27.30
2024-01-18T22:02:46.518Z,21.40
2024-01-18T22:12:49.800Z,22.50
2024-01-18T22:22:52.850Z,21.00
2024-01-18T22:32:56.004Z,17.50
2024-01-18T22:42:59.311Z,12.80
2024-01-18T22:53:06.075Z,12.30
2024-01-18T23:03:09.152Z,17.70
2024-01-18T23:13:12.262Z,20.90
2024-01-18T23:23:15.367Z,17.20
2024-01-18T23:33:18.669Z,17.80
2024-01-18T23:43:22.107Z,21.50
2024-01-18T23:53:25.205Z,17.30
